sensor_id;sensor_type;location;lat;lon;timestamp;P1;durP1;ratioP1;P2;durP2;ratioP2
45692;SDS011;31402;44.752;-0.374;2022-10-31T00:01:22;19.77;;;9.87;;
45692;SDS011;31402;44.752;-0.374;2022-10-31T00:03:49;24.17;;;9.47;;
45692;SDS011;31402;44.752;-0.374;2022-10-31T00:06:15;23.23;;;9.07;;
45692;SDS011;31402;44.752;-0.374;2022-10-31T00:08:47;15.13;;;8.60;;
45692;SDS011;31402;44.752;-0.374;2022-10-31T00:11:17;17.57;;;9.20;;
45692;SDS011;31402;44.752;-0.374;2022-10-31T00:13:43;24.10;;;8.90;;
45692;SDS011;31402;44.752;-0.374;2022-10-31T00:16:13;20.53;;;9.20;;
45692;SDS011;31402;44.752;-0.374;2022-10-31T00:18:40;20.40;;;9.07;;
45692;SDS011;31402;44.752;-0.374;2022-10-31T00:21:05;21.13;;;8.77;;
45692;SDS011;31402;44.752;-0.374;2022-10-31T00:23:31;19.37;;;8.93;;
45692;SDS011;31402;44.752;-0.374;2022-10-31T00:26:00;19.30;;;8.47;;
45692;SDS011;31402;44.752;-0.374;2022-10-31T00:28:27;19.50;;;8.50;;
45692;SDS011;31402;44.752;-0.374;2022-10-31T00:30:57;20.57;;;8.33;;
45692;SDS011;31402;44.752;-0.374;2022-10-31T00:33:24;15.60;;;8.63;;
45692;SDS011;31402;44.752;-0.374;2022-10-31T00:35:50;23.00;;;8.77;;
45692;SDS011;31402;44.752;-0.374;2022-10-31T00:38:15;17.50;;;8.37;;
45692;SDS011;31402;44.752;-0.374;2022-10-31T00:40:41;19.33;;;8.80;;
45692;SDS011;31402;44.752;-0.374;2022-10-31T00:43:08;18.00;;;7.90;;
45692;SDS011;31402;44.752;-0.374;2022-10-31T00:45:34;20.30;;;8.50;;
45692;SDS011;31402;44.752;-0.374;2022-10-31T00:47:59;19.63;;;7.93;;
45692;SDS011;31402;44.752;-0.374;2022-10-31T00:50:25;18.93;;;7.93;;
45692;SDS011;31402;44.752;-0.374;2022-10-31T00:52:51;16.00;;;7.67;;
45692;SDS011;31402;44.752;-0.374;2022-10-31T00:55:17;16.70;;;7.87;;
45692;SDS011;31402;44.752;-0.374;2022-10-31T00:57:42;14.30;;;6.70;;
45692;SDS011;31402;44.752;-0.374;2022-10-31T01:00:11;14.43;;;7.00;;
45692;SDS011;31402;44.752;-0.374;2022-10-31T01:02:37;17.00;;;6.57;;
45692;SDS011;31402;44.752;-0.374;2022-10-31T01:05:03;16.80;;;7.03;;
45692;SDS011;31402;44.752;-0.374;2022-10-31T01:07:29;15.33;;;6.20;;
45692;SDS011;31402;44.752;-0.374;2022-10-31T01:09:55;14.63;;;6.50;;
45692;SDS011;31402;44.752;-0.374;2022-10-31T01:12:21;14.27;;;6.50;;
45692;SDS011;31402;44.752;-0.374;2022-10-31T01:14:46;17.57;;;6.70;;
45692;SDS011;31402;44.752;-0.374;2022-10-31T01:17:12;14.60;;;6.43;;
45692;SDS011;31402;44.752;-0.374;2022-10-31T01:19:39;13.77;;;5.80;;
45692;SDS011;31402;44.752;-0.374;2022-10-31T01:22:05;12.47;;;6.23;;
45692;SDS011;31402;44.752;-0.374;2022-10-31T01:24:31;16.33;;;5.50;;
45692;SDS011;31402;44.752;-0.374;2022-10-31T01:26:57;11.87;;;5.10;;
45692;SDS011;31402;44.752;-0.374;2022-10-31T01:29:23;12.73;;;5.40;;
45692;SDS011;31402;44.752;-0.374;2022-10-31T01:31:48;12.20;;;5.60;;
45692;SDS011;31402;44.752;-0.374;2022-10-31T01:34:15;13.10;;;5.97;;
45692;SDS011;31402;44.752;-0.374;2022-10-31T01:36:42;15.07;;;6.30;;
45692;SDS011;31402;44.752;-0.374;2022-10-31T01:39:10;11.13;;;6.23;;
45692;SDS011;31402;44.752;-0.374;2022-10-31T01:41:42;12.63;;;6.53;;
45692;SDS011;31402;44.752;-0.374;2022-10-31T01:49:19;16.07;;;6.77;;
45692;SDS011;31402;44.752;-0.374;2022-10-31T01:51:58;15.13;;;7.50;;
45692;SDS011;31402;44.752;-0.374;2022-10-31T01:54:32;17.00;;;7.20;;
45692;SDS011;31402;44.752;-0.374;2022-10-31T01:57:01;15.63;;;6.83;;
45692;SDS011;31402;44.752;-0.374;2022-10-31T01:59:30;15.47;;;6.97;;
45692;SDS011;31402;44.752;-0.374;2022-10-31T02:01:59;16.17;;;6.90;;
45692;SDS011;31402;44.752;-0.374;2022-10-31T02:04:25;15.00;;;7.07;;
45692;SDS011;31402;44.752;-0.374;2022-10-31T02:06:59;15.50;;;6.90;;
45692;SDS011;31402;44.752;-0.374;2022-10-31T02:09:33;15.77;;;6.63;;
45692;SDS011;31402;44.752;-0.374;2022-10-31T02:12:01;13.10;;;6.77;;
45692;SDS011;31402;44.752;-0.374;2022-10-31T02:14:28;16.97;;;6.87;;
45692;SDS011;31402;44.752;-0.374;2022-10-31T02:16:55;16.30;;;7.30;;
45692;SDS011;31402;44.752;-0.374;2022-10-31T02:19:44;21.97;;;7.33;;
45692;SDS011;31402;44.752;-0.374;2022-10-31T02:22:19;13.87;;;6.90;;
45692;SDS011;31402;44.752;-0.374;2022-10-31T02:30:21;11.70;;;6.43;;
45692;SDS011;31402;44.752;-0.374;2022-10-31T02:41:18;13.97;;;6.17;;
45692;SDS011;31402;44.752;-0.374;2022-10-31T02:44:07;14.27;;;6.03;;
45692;SDS011;31402;44.752;-0.374;2022-10-31T02:46:50;14.03;;;6.00;;
45692;SDS011;31402;44.752;-0.374;2022-10-31T02:51:54;12.80;;;6.27;;
45692;SDS011;31402;44.752;-0.374;2022-10-31T02:54:24;15.47;;;6.40;;
45692;SDS011;31402;44.752;-0.374;2022-10-31T02:56:52;16.37;;;5.93;;
45692;SDS011;31402;44.752;-0.374;2022-10-31T02:59:28;15.10;;;6.00;;
45692;SDS011;31402;44.752;-0.374;2022-10-31T03:05:03;16.43;;;6.70;;
45692;SDS011;31402;44.752;-0.374;2022-10-31T03:07:38;16.50;;;6.10;;
45692;SDS011;31402;44.752;-0.374;2022-10-31T03:10:27;14.57;;;5.90;;
45692;SDS011;31402;44.752;-0.374;2022-10-31T03:13:05;13.90;;;6.20;;
45692;SDS011;31402;44.752;-0.374;2022-10-31T03:15:37;12.90;;;6.13;;
45692;SDS011;31402;44.752;-0.374;2022-10-31T03:20:42;16.23;;;6.00;;
45692;SDS011;31402;44.752;-0.374;2022-10-31T03:23:16;13.57;;;5.93;;
45692;SDS011;31402;44.752;-0.374;2022-10-31T03:25:44;14.40;;;5.73;;
45692;SDS011;31402;44.752;-0.374;2022-10-31T03:28:13;17.80;;;5.70;;
45692;SDS011;31402;44.752;-0.374;2022-10-31T03:30:44;17.33;;;5.80;;
45692;SDS011;31402;44.752;-0.374;2022-10-31T03:33:13;12.23;;;5.47;;
45692;SDS011;31402;44.752;-0.374;2022-10-31T03:35:44;12.63;;;5.47;;
45692;SDS011;31402;44.752;-0.374;2022-10-31T03:38:12;13.70;;;5.50;;
45692;SDS011;31402;44.752;-0.374;2022-10-31T03:40:40;16.43;;;5.53;;
45692;SDS011;31402;44.752;-0.374;2022-10-31T03:43:13;12.10;;;5.30;;
45692;SDS011;31402;44.752;-0.374;2022-10-31T03:45:45;16.30;;;5.47;;
45692;SDS011;31402;44.752;-0.374;2022-10-31T03:48:12;9.47;;;4.87;;
45692;SDS011;31402;44.752;-0.374;2022-10-31T03:53:41;14.53;;;5.17;;
45692;SDS011;31402;44.752;-0.374;2022-10-31T03:56:22;13.60;;;5.03;;
45692;SDS011;31402;44.752;-0.374;2022-10-31T03:59:20;9.90;;;5.17;;
45692;SDS011;31402;44.752;-0.374;2022-10-31T04:01:55;12.57;;;5.10;;
45692;SDS011;31402;44.752;-0.374;2022-10-31T04:04:25;15.90;;;5.43;;
45692;SDS011;31402;44.752;-0.374;2022-10-31T04:06:52;16.37;;;5.10;;
45692;SDS011;31402;44.752;-0.374;2022-10-31T04:09:20;12.97;;;4.50;;
45692;SDS011;31402;44.752;-0.374;2022-10-31T04:11:51;13.23;;;4.83;;
45692;SDS011;31402;44.752;-0.374;2022-10-31T04:14:19;12.93;;;5.17;;
45692;SDS011;31402;44.752;-0.374;2022-10-31T04:16:47;14.93;;;5.30;;
45692;SDS011;31402;44.752;-0.374;2022-10-31T04:19:13;14.33;;;4.47;;
45692;SDS011;31402;44.752;-0.374;2022-10-31T04:21:40;15.00;;;5.37;;
45692;SDS011;31402;44.752;-0.374;2022-10-31T04:24:08;15.80;;;5.10;;
45692;SDS011;31402;44.752;-0.374;2022-10-31T04:26:34;14.43;;;5.33;;
45692;SDS011;31402;44.752;-0.374;2022-10-31T04:29:00;15.10;;;4.80;;
45692;SDS011;31402;44.752;-0.374;2022-10-31T04:31:26;14.50;;;5.37;;
45692;SDS011;31402;44.752;-0.374;2022-10-31T04:33:52;12.20;;;5.10;;
45692;SDS011;31402;44.752;-0.374;2022-10-31T04:36:18;18.67;;;5.07;;
45692;SDS011;31402;44.752;-0.374;2022-10-31T04:38:44;15.93;;;4.77;;
45692;SDS011;31402;44.752;-0.374;2022-10-31T04:41:09;10.13;;;4.80;;
45692;SDS011;31402;44.752;-0.374;2022-10-31T04:43:35;13.47;;;4.60;;
45692;SDS011;31402;44.752;-0.374;2022-10-31T04:46:01;13.80;;;5.03;;
45692;SDS011;31402;44.752;-0.374;2022-10-31T04:48:27;15.73;;;4.90;;
45692;SDS011;31402;44.752;-0.374;2022-10-31T04:50:57;11.40;;;4.90;;
45692;SDS011;31402;44.752;-0.374;2022-10-31T04:53:26;21.77;;;5.30;;
45692;SDS011;31402;44.752;-0.374;2022-10-31T04:55:52;17.40;;;5.77;;
45692;SDS011;31402;44.752;-0.374;2022-10-31T04:58:18;15.23;;;5.27;;
45692;SDS011;31402;44.752;-0.374;2022-10-31T05:00:44;12.13;;;5.10;;
45692;SDS011;31402;44.752;-0.374;2022-10-31T05:03:10;15.07;;;5.30;;
45692;SDS011;31402;44.752;-0.374;2022-10-31T05:05:35;16.73;;;5.40;;
45692;SDS011;31402;44.752;-0.374;2022-10-31T05:08:01;15.97;;;5.17;;
45692;SDS011;31402;44.752;-0.374;2022-10-31T05:10:27;14.27;;;5.63;;
45692;SDS011;31402;44.752;-0.374;2022-10-31T05:12:55;11.87;;;5.00;;
45692;SDS011;31402;44.752;-0.374;2022-10-31T05:15:23;18.70;;;5.67;;
45692;SDS011;31402;44.752;-0.374;2022-10-31T05:17:50;15.97;;;5.10;;
45692;SDS011;31402;44.752;-0.374;2022-10-31T05:20:18;16.73;;;5.50;;
45692;SDS011;31402;44.752;-0.374;2022-10-31T05:22:46;15.80;;;5.70;;
45692;SDS011;31402;44.752;-0.374;2022-10-31T05:25:14;14.53;;;5.70;;
45692;SDS011;31402;44.752;-0.374;2022-10-31T05:27:40;15.30;;;5.50;;
45692;SDS011;31402;44.752;-0.374;2022-10-31T05:30:08;16.47;;;5.53;;
45692;SDS011;31402;44.752;-0.374;2022-10-31T05:32:41;17.67;;;5.80;;
45692;SDS011;31402;44.752;-0.374;2022-10-31T05:35:10;18.50;;;6.10;;
45692;SDS011;31402;44.752;-0.374;2022-10-31T05:37:40;16.27;;;5.37;;
45692;SDS011;31402;44.752;-0.374;2022-10-31T05:40:06;16.20;;;5.70;;
45692;SDS011;31402;44.752;-0.374;2022-10-31T05:42:34;18.57;;;6.00;;
45692;SDS011;31402;44.752;-0.374;2022-10-31T05:45:00;16.93;;;5.73;;
45692;SDS011;31402;44.752;-0.374;2022-10-31T05:47:26;14.53;;;5.40;;
45692;SDS011;31402;44.752;-0.374;2022-10-31T05:49:52;18.53;;;5.70;;
45692;SDS011;31402;44.752;-0.374;2022-10-31T05:52:18;17.03;;;5.70;;
45692;SDS011;31402;44.752;-0.374;2022-10-31T05:54:44;15.37;;;5.50;;
45692;SDS011;31402;44.752;-0.374;2022-10-31T05:57:09;16.23;;;5.47;;
45692;SDS011;31402;44.752;-0.374;2022-10-31T05:59:35;15.07;;;5.77;;
45692;SDS011;31402;44.752;-0.374;2022-10-31T06:02:01;19.17;;;6.07;;
45692;SDS011;31402;44.752;-0.374;2022-10-31T06:04:27;16.00;;;5.70;;
45692;SDS011;31402;44.752;-0.374;2022-10-31T06:06:53;19.87;;;5.83;;
45692;SDS011;31402;44.752;-0.374;2022-10-31T06:09:18;17.60;;;5.87;;
45692;SDS011;31402;44.752;-0.374;2022-10-31T06:11:44;21.27;;;6.30;;
45692;SDS011;31402;44.752;-0.374;2022-10-31T06:14:10;21.40;;;5.97;;
45692;SDS011;31402;44.752;-0.374;2022-10-31T06:16:36;18.17;;;6.07;;
45692;SDS011;31402;44.752;-0.374;2022-10-31T06:19:01;20.53;;;6.47;;
45692;SDS011;31402;44.752;-0.374;2022-10-31T06:21:27;20.57;;;6.13;;
45692;SDS011;31402;44.752;-0.374;2022-10-31T06:23:53;22.17;;;6.13;;
45692;SDS011;31402;44.752;-0.374;2022-10-31T06:26:19;18.50;;;6.50;;
45692;SDS011;31402;44.752;-0.374;2022-10-31T06:28:44;20.57;;;5.50;;
45692;SDS011;31402;44.752;-0.374;2022-10-31T06:31:10;20.37;;;6.13;;
45692;SDS011;31402;44.752;-0.374;2022-10-31T06:33:36;16.23;;;6.20;;
45692;SDS011;31402;44.752;-0.374;2022-10-31T06:36:01;18.80;;;6.43;;
45692;SDS011;31402;44.752;-0.374;2022-10-31T06:38:28;17.83;;;5.90;;
45692;SDS011;31402;44.752;-0.374;2022-10-31T06:40:54;17.43;;;6.07;;
45692;SDS011;31402;44.752;-0.374;2022-10-31T06:43:20;20.97;;;6.63;;
45692;SDS011;31402;44.752;-0.374;2022-10-31T06:45:46;21.80;;;6.13;;
45692;SDS011;31402;44.752;-0.374;2022-10-31T06:48:12;18.00;;;6.40;;
45692;SDS011;31402;44.752;-0.374;2022-10-31T06:50:38;16.50;;;5.90;;
45692;SDS011;31402;44.752;-0.374;2022-10-31T06:53:04;16.47;;;6.40;;
45692;SDS011;31402;44.752;-0.374;2022-10-31T06:55:30;25.10;;;6.17;;
45692;SDS011;31402;44.752;-0.374;2022-10-31T06:57:57;15.80;;;5.97;;
45692;SDS011;31402;44.752;-0.374;2022-10-31T07:00:25;20.80;;;6.77;;
45692;SDS011;31402;44.752;-0.374;2022-10-31T07:03:13;16.47;;;6.17;;
45692;SDS011;31402;44.752;-0.374;2022-10-31T07:05:40;19.07;;;6.37;;
45692;SDS011;31402;44.752;-0.374;2022-10-31T07:08:07;20.37;;;6.70;;
45692;SDS011;31402;44.752;-0.374;2022-10-31T07:10:37;21.17;;;6.50;;
45692;SDS011;31402;44.752;-0.374;2022-10-31T07:13:06;21.10;;;6.50;;
45692;SDS011;31402;44.752;-0.374;2022-10-31T07:15:35;29.07;;;6.23;;
45692;SDS011;31402;44.752;-0.374;2022-10-31T07:18:03;16.87;;;5.83;;
45692;SDS011;31402;44.752;-0.374;2022-10-31T07:20:30;17.10;;;6.40;;
45692;SDS011;31402;44.752;-0.374;2022-10-31T07:22:56;13.30;;;5.67;;
45692;SDS011;31402;44.752;-0.374;2022-10-31T07:25:22;18.03;;;6.17;;
45692;SDS011;31402;44.752;-0.374;2022-10-31T07:27:48;15.07;;;6.13;;
45692;SDS011;31402;44.752;-0.374;2022-10-31T07:30:14;18.03;;;6.70;;
45692;SDS011;31402;44.752;-0.374;2022-10-31T07:32:44;20.57;;;6.47;;
45692;SDS011;31402;44.752;-0.374;2022-10-31T07:35:12;16.03;;;5.57;;
45692;SDS011;31402;44.752;-0.374;2022-10-31T07:37:40;17.90;;;5.53;;
45692;SDS011;31402;44.752;-0.374;2022-10-31T07:40:06;15.83;;;5.87;;
45692;SDS011;31402;44.752;-0.374;2022-10-31T07:42:36;13.37;;;5.50;;
45692;SDS011;31402;44.752;-0.374;2022-10-31T07:45:03;17.07;;;5.97;;
45692;SDS011;31402;44.752;-0.374;2022-10-31T07:47:30;20.43;;;5.53;;
45692;SDS011;31402;44.752;-0.374;2022-10-31T07:50:03;17.03;;;5.80;;
45692;SDS011;31402;44.752;-0.374;2022-10-31T07:52:29;15.53;;;5.90;;
45692;SDS011;31402;44.752;-0.374;2022-10-31T07:54:55;15.17;;;5.87;;
45692;SDS011;31402;44.752;-0.374;2022-10-31T07:57:21;16.37;;;5.57;;
45692;SDS011;31402;44.752;-0.374;2022-10-31T07:59:46;19.27;;;5.90;;
45692;SDS011;31402;44.752;-0.374;2022-10-31T08:02:12;16.53;;;5.50;;
45692;SDS011;31402;44.752;-0.374;2022-10-31T08:04:38;15.40;;;5.40;;
45692;SDS011;31402;44.752;-0.374;2022-10-31T08:07:04;13.27;;;5.20;;
45692;SDS011;31402;44.752;-0.374;2022-10-31T08:09:29;17.20;;;5.47;;
45692;SDS011;31402;44.752;-0.374;2022-10-31T08:11:55;16.40;;;5.63;;
45692;SDS011;31402;44.752;-0.374;2022-10-31T08:14:21;18.87;;;5.73;;
45692;SDS011;31402;44.752;-0.374;2022-10-31T08:16:47;16.07;;;5.30;;
45692;SDS011;31402;44.752;-0.374;2022-10-31T08:19:13;20.90;;;5.70;;
45692;SDS011;31402;44.752;-0.374;2022-10-31T08:21:39;16.63;;;5.23;;
45692;SDS011;31402;44.752;-0.374;2022-10-31T08:24:05;18.80;;;6.10;;
45692;SDS011;31402;44.752;-0.374;2022-10-31T08:26:31;17.10;;;5.47;;
45692;SDS011;31402;44.752;-0.374;2022-10-31T08:28:57;19.33;;;5.47;;
45692;SDS011;31402;44.752;-0.374;2022-10-31T08:31:23;17.00;;;5.43;;
45692;SDS011;31402;44.752;-0.374;2022-10-31T08:33:52;15.87;;;5.67;;
45692;SDS011;31402;44.752;-0.374;2022-10-31T08:36:18;13.87;;;4.80;;
45692;SDS011;31402;44.752;-0.374;2022-10-31T08:38:46;18.77;;;5.30;;
45692;SDS011;31402;44.752;-0.374;2022-10-31T08:41:12;14.43;;;5.33;;
45692;SDS011;31402;44.752;-0.374;2022-10-31T08:43:38;16.27;;;5.50;;
45692;SDS011;31402;44.752;-0.374;2022-10-31T08:46:04;21.27;;;5.93;;
45692;SDS011;31402;44.752;-0.374;2022-10-31T08:48:30;17.13;;;5.60;;
45692;SDS011;31402;44.752;-0.374;2022-10-31T08:50:57;17.93;;;6.00;;
45692;SDS011;31402;44.752;-0.374;2022-10-31T08:53:24;22.30;;;5.50;;
45692;SDS011;31402;44.752;-0.374;2022-10-31T08:55:53;18.60;;;5.50;;
45692;SDS011;31402;44.752;-0.374;2022-10-31T08:58:20;14.90;;;5.15;;
45692;SDS011;31402;44.752;-0.374;2022-10-31T09:00:47;15.10;;;5.30;;
45692;SDS011;31402;44.752;-0.374;2022-10-31T09:03:16;17.95;;;5.50;;
45692;SDS011;31402;44.752;-0.374;2022-10-31T09:05:44;13.88;;;5.20;;
45692;SDS011;31402;44.752;-0.374;2022-10-31T09:08:10;14.13;;;4.93;;
45692;SDS011;31402;44.752;-0.374;2022-10-31T09:10:37;19.63;;;5.40;;
45692;SDS011;31402;44.752;-0.374;2022-10-31T09:13:11;17.55;;;5.45;;
45692;SDS011;31402;44.752;-0.374;2022-10-31T09:15:39;18.25;;;5.90;;
45692;SDS011;31402;44.752;-0.374;2022-10-31T09:18:06;16.33;;;5.40;;
45692;SDS011;31402;44.752;-0.374;2022-10-31T09:20:32;19.15;;;5.30;;
45692;SDS011;31402;44.752;-0.374;2022-10-31T09:23:01;17.98;;;5.30;;
45692;SDS011;31402;44.752;-0.374;2022-10-31T09:25:33;19.27;;;5.15;;
45692;SDS011;31402;44.752;-0.374;2022-10-31T09:28:01;19.33;;;5.37;;
45692;SDS011;31402;44.752;-0.374;2022-10-31T09:30:32;14.97;;;5.13;;
45692;SDS011;31402;44.752;-0.374;2022-10-31T09:33:05;14.97;;;5.00;;
45692;SDS011;31402;44.752;-0.374;2022-10-31T09:35:33;18.77;;;5.57;;
45692;SDS011;31402;44.752;-0.374;2022-10-31T09:38:00;16.47;;;5.17;;
45692;SDS011;31402;44.752;-0.374;2022-10-31T09:51:33;16.27;;;5.00;;
45692;SDS011;31402;44.752;-0.374;2022-10-31T09:56:37;14.88;;;4.88;;
45692;SDS011;31402;44.752;-0.374;2022-10-31T09:59:04;18.73;;;5.72;;
45692;SDS011;31402;44.752;-0.374;2022-10-31T10:01:53;18.33;;;5.15;;
45692;SDS011;31402;44.752;-0.374;2022-10-31T10:07:11;14.60;;;4.53;;
45692;SDS011;31402;44.752;-0.374;2022-10-31T10:09:46;13.98;;;4.97;;
45692;SDS011;31402;44.752;-0.374;2022-10-31T10:12:15;14.80;;;4.80;;
45692;SDS011;31402;44.752;-0.374;2022-10-31T10:15:00;14.98;;;4.57;;
45692;SDS011;31402;44.752;-0.374;2022-10-31T10:26:17;14.38;;;4.55;;
45692;SDS011;31402;44.752;-0.374;2022-10-31T10:28:58;15.23;;;4.40;;
45692;SDS011;31402;44.752;-0.374;2022-10-31T10:31:32;18.02;;;5.13;;
45692;SDS011;31402;44.752;-0.374;2022-10-31T10:34:20;14.85;;;4.40;;
45692;SDS011;31402;44.752;-0.374;2022-10-31T10:37:11;16.05;;;4.90;;
45692;SDS011;31402;44.752;-0.374;2022-10-31T10:39:40;14.82;;;4.57;;
45692;SDS011;31402;44.752;-0.374;2022-10-31T10:42:11;14.68;;;4.28;;
45692;SDS011;31402;44.752;-0.374;2022-10-31T10:44:58;14.27;;;4.68;;
45692;SDS011;31402;44.752;-0.374;2022-10-31T10:47:44;13.57;;;4.30;;
45692;SDS011;31402;44.752;-0.374;2022-10-31T10:50:18;17.75;;;4.57;;
45692;SDS011;31402;44.752;-0.374;2022-10-31T10:58:07;14.30;;;4.30;;
45692;SDS011;31402;44.752;-0.374;2022-10-31T11:00:38;15.32;;;4.38;;
45692;SDS011;31402;44.752;-0.374;2022-10-31T11:03:06;19.15;;;5.13;;
45692;SDS011;31402;44.752;-0.374;2022-10-31T11:08:07;13.77;;;4.70;;
45692;SDS011;31402;44.752;-0.374;2022-10-31T11:10:33;13.45;;;4.80;;
45692;SDS011;31402;44.752;-0.374;2022-10-31T11:15:33;12.13;;;4.50;;
45692;SDS011;31402;44.752;-0.374;2022-10-31T11:18:19;18.83;;;5.00;;
45692;SDS011;31402;44.752;-0.374;2022-10-31T11:20:57;15.30;;;4.57;;
45692;SDS011;31402;44.752;-0.374;2022-10-31T11:23:26;13.05;;;4.47;;
45692;SDS011;31402;44.752;-0.374;2022-10-31T11:26:00;13.57;;;4.85;;
45692;SDS011;31402;44.752;-0.374;2022-10-31T11:28:30;15.75;;;4.30;;
45692;SDS011;31402;44.752;-0.374;2022-10-31T11:30:59;16.05;;;5.00;;
45692;SDS011;31402;44.752;-0.374;2022-10-31T11:36:24;16.45;;;4.80;;
45692;SDS011;31402;44.752;-0.374;2022-10-31T11:39:02;11.85;;;4.07;;
45692;SDS011;31402;44.752;-0.374;2022-10-31T11:41:34;13.40;;;4.88;;
45692;SDS011;31402;44.752;-0.374;2022-10-31T11:44:05;15.88;;;4.45;;
45692;SDS011;31402;44.752;-0.374;2022-10-31T11:46:53;11.60;;;4.55;;
45692;SDS011;31402;44.752;-0.374;2022-10-31T11:52:06;17.15;;;4.55;;
45692;SDS011;31402;44.752;-0.374;2022-10-31T11:57:20;13.80;;;4.85;;
45692;SDS011;31402;44.752;-0.374;2022-10-31T12:00:20;14.95;;;4.50;;
45692;SDS011;31402;44.752;-0.374;2022-10-31T12:03:03;14.70;;;4.70;;
45692;SDS011;31402;44.752;-0.374;2022-10-31T12:08:35;16.17;;;4.45;;
45692;SDS011;31402;44.752;-0.374;2022-10-31T12:22:29;19.55;;;4.40;;
45692;SDS011;31402;44.752;-0.374;2022-10-31T12:25:31;13.60;;;4.00;;
45692;SDS011;31402;44.752;-0.374;2022-10-31T12:28:30;16.85;;;4.55;;
45692;SDS011;31402;44.752;-0.374;2022-10-31T12:36:21;12.23;;;4.90;;
45692;SDS011;31402;44.752;-0.374;2022-10-31T12:42:11;17.27;;;4.13;;
45692;SDS011;31402;44.752;-0.374;2022-10-31T12:48:17;16.40;;;4.57;;
45692;SDS011;31402;44.752;-0.374;2022-10-31T12:56:56;12.90;;;4.68;;
45692;SDS011;31402;44.752;-0.374;2022-10-31T12:59:36;15.85;;;4.72;;
45692;SDS011;31402;44.752;-0.374;2022-10-31T13:07:25;13.40;;;4.55;;
45692;SDS011;31402;44.752;-0.374;2022-10-31T13:10:04;14.80;;;4.60;;
45692;SDS011;31402;44.752;-0.374;2022-10-31T13:12:37;13.02;;;4.75;;
45692;SDS011;31402;44.752;-0.374;2022-10-31T13:15:12;14.43;;;5.07;;
45692;SDS011;31402;44.752;-0.374;2022-10-31T13:17:50;11.20;;;4.07;;
45692;SDS011;31402;44.752;-0.374;2022-10-31T13:20:27;15.98;;;5.13;;
45692;SDS011;31402;44.752;-0.374;2022-10-31T13:23:12;12.88;;;4.22;;
45692;SDS011;31402;44.752;-0.374;2022-10-31T13:25:46;14.55;;;4.15;;
45692;SDS011;31402;44.752;-0.374;2022-10-31T13:31:14;16.20;;;4.68;;
45692;SDS011;31402;44.752;-0.374;2022-10-31T13:33:42;12.77;;;3.90;;
45692;SDS011;31402;44.752;-0.374;2022-10-31T13:45:11;9.73;;;3.28;;
45692;SDS011;31402;44.752;-0.374;2022-10-31T13:47:41;10.45;;;3.05;;
45692;SDS011;31402;44.752;-0.374;2022-10-31T13:50:24;8.05;;;2.90;;
45692;SDS011;31402;44.752;-0.374;2022-10-31T13:52:57;9.30;;;3.35;;
45692;SDS011;31402;44.752;-0.374;2022-10-31T13:56:02;9.10;;;3.13;;
45692;SDS011;31402;44.752;-0.374;2022-10-31T13:58:29;12.15;;;3.30;;
45692;SDS011;31402;44.752;-0.374;2022-10-31T14:03:27;10.30;;;3.08;;
45692;SDS011;31402;44.752;-0.374;2022-10-31T14:05:54;10.68;;;3.22;;
45692;SDS011;31402;44.752;-0.374;2022-10-31T14:08:21;11.90;;;3.40;;
45692;SDS011;31402;44.752;-0.374;2022-10-31T14:10:52;10.65;;;3.35;;
45692;SDS011;31402;44.752;-0.374;2022-10-31T14:13:21;8.68;;;3.10;;
45692;SDS011;31402;44.752;-0.374;2022-10-31T14:15:59;12.65;;;3.10;;
45692;SDS011;31402;44.752;-0.374;2022-10-31T14:18:34;15.35;;;3.47;;
45692;SDS011;31402;44.752;-0.374;2022-10-31T14:21:16;12.40;;;3.83;;
45692;SDS011;31402;44.752;-0.374;2022-10-31T14:23:48;9.95;;;3.40;;
45692;SDS011;31402;44.752;-0.374;2022-10-31T14:28:53;10.90;;;3.10;;
45692;SDS011;31402;44.752;-0.374;2022-10-31T14:34:00;9.00;;;3.22;;
45692;SDS011;31402;44.752;-0.374;2022-10-31T14:36:49;10.50;;;2.88;;
45692;SDS011;31402;44.752;-0.374;2022-10-31T14:56:09;6.80;;;2.83;;
45692;SDS011;31402;44.752;-0.374;2022-10-31T14:58:45;7.78;;;2.92;;
45692;SDS011;31402;44.752;-0.374;2022-10-31T15:01:22;9.82;;;3.00;;
45692;SDS011;31402;44.752;-0.374;2022-10-31T15:03:53;10.88;;;3.17;;
45692;SDS011;31402;44.752;-0.374;2022-10-31T15:06:25;9.90;;;2.72;;
45692;SDS011;31402;44.752;-0.374;2022-10-31T15:08:55;7.80;;;3.28;;
45692;SDS011;31402;44.752;-0.374;2022-10-31T15:11:22;10.95;;;3.10;;
45692;SDS011;31402;44.752;-0.374;2022-10-31T15:13:50;9.27;;;2.70;;
45692;SDS011;31402;44.752;-0.374;2022-10-31T15:16:26;9.90;;;3.17;;
45692;SDS011;31402;44.752;-0.374;2022-10-31T15:21:24;14.35;;;3.40;;
45692;SDS011;31402;44.752;-0.374;2022-10-31T15:23:55;10.55;;;3.25;;
45692;SDS011;31402;44.752;-0.374;2022-10-31T15:26:23;8.95;;;3.10;;
45692;SDS011;31402;44.752;-0.374;2022-10-31T15:29:06;10.60;;;3.00;;
45692;SDS011;31402;44.752;-0.374;2022-10-31T15:31:57;9.73;;;3.08;;
45692;SDS011;31402;44.752;-0.374;2022-10-31T15:37:07;7.88;;;2.80;;
45692;SDS011;31402;44.752;-0.374;2022-10-31T15:39:39;7.93;;;3.00;;
45692;SDS011;31402;44.752;-0.374;2022-10-31T15:42:05;10.05;;;3.10;;
45692;SDS011;31402;44.752;-0.374;2022-10-31T15:44:44;8.27;;;3.10;;
45692;SDS011;31402;44.752;-0.374;2022-10-31T15:47:22;10.20;;;2.90;;
45692;SDS011;31402;44.752;-0.374;2022-10-31T15:49:50;7.32;;;2.70;;
45692;SDS011;31402;44.752;-0.374;2022-10-31T15:52:40;11.35;;;3.03;;
45692;SDS011;31402;44.752;-0.374;2022-10-31T15:57:34;8.40;;;2.70;;
45692;SDS011;31402;44.752;-0.374;2022-10-31T16:00:20;12.00;;;3.45;;
45692;SDS011;31402;44.752;-0.374;2022-10-31T16:05:46;11.85;;;3.30;;
45692;SDS011;31402;44.752;-0.374;2022-10-31T16:10:55;9.30;;;2.95;;
45692;SDS011;31402;44.752;-0.374;2022-10-31T16:13:26;8.38;;;2.50;;
45692;SDS011;31402;44.752;-0.374;2022-10-31T16:15:56;9.18;;;2.60;;
45692;SDS011;31402;44.752;-0.374;2022-10-31T16:18:25;11.65;;;3.20;;
45692;SDS011;31402;44.752;-0.374;2022-10-31T16:20:53;10.05;;;3.10;;
45692;SDS011;31402;44.752;-0.374;2022-10-31T16:23:21;9.73;;;2.60;;
45692;SDS011;31402;44.752;-0.374;2022-10-31T16:25:49;8.05;;;3.00;;
45692;SDS011;31402;44.752;-0.374;2022-10-31T16:28:20;8.90;;;2.85;;
45692;SDS011;31402;44.752;-0.374;2022-10-31T16:30:51;7.85;;;2.78;;
45692;SDS011;31402;44.752;-0.374;2022-10-31T16:33:28;8.20;;;2.65;;
45692;SDS011;31402;44.752;-0.374;2022-10-31T16:36:00;10.68;;;2.80;;
45692;SDS011;31402;44.752;-0.374;2022-10-31T16:38:46;12.02;;;2.80;;
45692;SDS011;31402;44.752;-0.374;2022-10-31T16:41:12;9.85;;;2.60;;
45692;SDS011;31402;44.752;-0.374;2022-10-31T16:43:37;9.10;;;2.97;;
45692;SDS011;31402;44.752;-0.374;2022-10-31T16:46:03;8.98;;;2.80;;
45692;SDS011;31402;44.752;-0.374;2022-10-31T16:48:29;9.40;;;2.97;;
45692;SDS011;31402;44.752;-0.374;2022-10-31T16:50:55;8.30;;;2.83;;
45692;SDS011;31402;44.752;-0.374;2022-10-31T16:53:20;7.03;;;2.90;;
45692;SDS011;31402;44.752;-0.374;2022-10-31T16:55:49;8.07;;;2.80;;
45692;SDS011;31402;44.752;-0.374;2022-10-31T16:58:37;6.30;;;2.60;;
45692;SDS011;31402;44.752;-0.374;2022-10-31T17:01:04;10.30;;;2.85;;
45692;SDS011;31402;44.752;-0.374;2022-10-31T17:03:31;9.23;;;3.00;;
45692;SDS011;31402;44.752;-0.374;2022-10-31T17:05:56;8.63;;;3.25;;
45692;SDS011;31402;44.752;-0.374;2022-10-31T17:08:23;8.13;;;2.80;;
45692;SDS011;31402;44.752;-0.374;2022-10-31T17:10:53;11.00;;;3.05;;
45692;SDS011;31402;44.752;-0.374;2022-10-31T17:13:22;6.65;;;2.65;;
45692;SDS011;31402;44.752;-0.374;2022-10-31T17:15:50;8.50;;;2.58;;
45692;SDS011;31402;44.752;-0.374;2022-10-31T17:18:20;7.47;;;3.03;;
45692;SDS011;31402;44.752;-0.374;2022-10-31T17:20:46;8.02;;;2.70;;
45692;SDS011;31402;44.752;-0.374;2022-10-31T17:23:12;6.88;;;2.67;;